Las Vegas, Nevada
Current Conditions -  °F | °C
As of 7:56 AM on Thursday 27 Nov 2014 (Local Time) from KLAS Reporting Station
Broken Clouds Broken Clouds  
Wind Chill: 11°   Ceiling: 25000
Heat Index: 11°   Visibility: 10mi
Dew Point: -6°   Wind: 8mph
Humidity: 31%   Direction: 190°S
Pressure: 30.27"   Gusts: NA
Location:  36.17°N, 115.13°W
Report Text: KLAS 271556Z 19007KT 10SM BKN250 11/M06 A3027 RMK AO2 SLP248 T01061061
Loading
Personal Weather Stations






























Interactive Weather Map New forecast layout! Learn more

10-Day Weather Forecast

Advertisements
Track Severe Weather on mobile